Time;durP1;ratioP1;P1;durP2;ratioP2;P2;SDS_P1;SDS_P2;PMS_P1;PMS_P2;Temp;Humidity;BMP_temperature;BMP_pressure;BME280_temperature;BME280_humidity;BME280_pressure;Samples;Min_cycle;Max_cycle;Signal;HPM_P1;HPM_P2
2021/05/23 00:01:07;;;;;;;0.70;0.50;;;10.90;99.90;;;;;;5055252;28;20421;-80
2021/05/23 00:03:33;;;;;;;0.70;0.50;;;10.80;99.90;;;;;;5043639;28;20397;-80
2021/05/23 00:05:59;;;;;;;0.70;0.50;;;10.80;99.90;;;;;;5072258;28;20827;-80
2021/05/23 00:08:26;;;;;;;0.70;0.50;;;11.00;99.90;;;;;;5064134;28;20426;-80
2021/05/23 00:11:11;;;;;;;0.70;0.50;;;11.10;99.90;;;;;;5049885;28;20413;-80
2021/05/23 00:13:46;;;;;;;0.70;0.50;;;11.10;99.90;;;;;;5068170;28;20439;-80
2021/05/23 00:16:21;;;;;;;0.70;0.50;;;11.10;99.90;;;;;;5073560;28;20443;-80
2021/05/23 00:18:51;;;;;;;0.70;0.50;;;11.10;99.90;;;;;;5070419;28;20429;-80
2021/05/23 00:21:19;;;;;;;0.70;0.50;;;11.00;99.90;;;;;;5060665;28;20413;-80
2021/05/23 00:23:45;;;;;;;0.70;0.50;;;10.90;99.90;;;;;;5074313;28;20557;-80
2021/05/23 00:26:11;;;;;;;0.70;0.50;;;10.80;99.90;;;;;;5072962;28;20440;-80
2021/05/23 00:28:37;;;;;;;0.70;0.50;;;10.80;99.90;;;;;;5054168;28;20428;-80
2021/05/23 00:31:04;;;;;;;0.70;0.50;;;10.70;99.90;;;;;;5080974;28;20480;-80
2021/05/23 00:33:30;;;;;;;0.70;0.50;;;10.70;99.90;;;;;;5051113;28;20435;-80
2021/05/23 00:35:56;;;;;;;0.70;0.50;;;10.70;99.90;;;;;;5076428;28;20503;-80
2021/05/23 00:38:22;;;;;;;0.70;0.50;;;10.60;99.90;;;;;;5062764;28;20198;-80
2021/05/23 00:40:48;;;;;;;0.70;0.50;;;10.80;99.90;;;;;;5061739;28;20223;-80
2021/05/23 00:43:16;;;;;;;0.70;0.50;;;10.60;99.90;;;;;;5046052;28;20429;-80
2021/05/23 00:45:42;;;;;;;0.70;0.50;;;10.80;99.90;;;;;;5068640;28;20457;-79
2021/05/23 00:48:08;;;;;;;0.70;0.50;;;10.70;99.90;;;;;;5043066;28;20919;-80
2021/05/23 00:50:35;;;;;;;0.70;0.50;;;10.60;99.90;;;;;;5042479;28;20428;-80
2021/05/23 00:53:02;;;;;;;0.70;0.40;;;10.60;99.90;;;;;;5067488;28;20177;-80
2021/05/23 00:55:28;;;;;;;0.70;0.50;;;10.60;99.90;;;;;;5082713;28;20414;-80
2021/05/23 00:57:54;;;;;;;0.70;0.50;;;10.60;99.90;;;;;;5079629;28;20511;-80
2021/05/23 01:00:43;;;;;;;0.70;0.50;;;10.60;99.90;;;;;;5077597;28;20478;-80
2021/05/23 01:03:30;;;;;;;0.70;0.50;;;10.70;99.90;;;;;;5032011;28;20444;-80
2021/05/23 01:05:57;;;;;;;0.70;0.50;;;10.60;99.90;;;;;;5061018;28;20436;-80
2021/05/23 01:08:24;;;;;;;0.70;0.50;;;10.60;99.90;;;;;;5076923;28;20423;-80
2021/05/23 01:10:54;;;;;;;0.70;0.50;;;10.50;99.90;;;;;;5064087;28;20426;-80
2021/05/23 01:13:38;;;;;;;0.70;0.50;;;10.60;99.90;;;;;;5062289;28;20417;-80
2021/05/23 01:16:25;;;;;;;0.70;0.50;;;10.60;99.90;;;;;;5080839;28;20434;-79
2021/05/23 01:19:31;;;;;;;0.70;0.50;;;10.50;99.90;;;;;;5077905;28;20416;-80
2021/05/23 01:22:18;;;;;;;0.70;0.50;;;10.50;99.90;;;;;;5081170;28;20396;-80
2021/05/23 01:25:05;;;;;;;0.70;0.50;;;10.50;99.90;;;;;;5054379;28;20429;-79
2021/05/23 01:27:38;;;;;;;0.70;0.50;;;10.50;99.90;;;;;;5079083;28;20520;-80
2021/05/23 01:30:30;;;;;;;0.70;0.50;;;10.50;99.90;;;;;;5078064;28;20422;-80
2021/05/23 01:33:03;;;;;;;0.70;0.50;;;10.40;99.90;;;;;;5077874;28;20418;-80
2021/05/23 01:35:58;;;;;;;0.70;0.50;;;10.40;99.90;;;;;;5057759;28;20772;-80
2021/05/23 01:39:07;;;;;;;0.70;0.50;;;10.40;99.90;;;;;;5060922;28;20427;-80
2021/05/23 01:42:05;;;;;;;0.70;0.50;;;10.40;99.90;;;;;;5069712;28;20443;-80
2021/05/23 01:44:51;;;;;;;0.70;0.50;;;10.40;99.90;;;;;;5059456;28;20427;-80
2021/05/23 01:54:02;;;;;;;0.70;0.50;;;10.50;99.90;;;;;;5057545;28;20534;-80
2021/05/23 01:56:29;;;;;;;0.70;0.50;;;10.40;99.90;;;;;;5043638;28;20949;-80
2021/05/23 01:58:57;;;;;;;0.70;0.50;;;10.40;99.90;;;;;;5060442;28;20412;-80
2021/05/23 02:01:25;;;;;;;0.70;0.50;;;10.60;99.90;;;;;;5060285;28;20451;-80
2021/05/23 02:04:00;;;;;;;0.70;0.50;;;10.60;99.90;;;;;;5043334;28;20443;-79
2021/05/23 02:06:45;;;;;;;0.70;0.50;;;10.50;99.90;;;;;;5069523;28;20450;-80
2021/05/23 02:09:15;;;;;;;0.70;0.50;;;10.50;99.90;;;;;;5062162;28;20412;-80
2021/05/23 02:11:40;;;;;;;0.70;0.50;;;10.50;99.90;;;;;;5044207;28;20431;-80
2021/05/23 02:14:07;;;;;;;0.70;0.50;;;10.60;99.90;;;;;;5057124;28;20403;-80
2021/05/23 02:16:33;;;;;;;0.70;0.50;;;10.60;99.90;;;;;;5056423;28;20571;-80
2021/05/23 02:18:59;;;;;;;0.70;0.50;;;10.60;99.90;;;;;;5059972;28;20435;-80
2021/05/23 02:22:00;;;;;;;0.70;0.50;;;10.60;99.90;;;;;;5077116;28;20416;-80
2021/05/23 02:24:46;;;;;;;0.70;0.50;;;10.60;99.90;;;;;;5054989;28;20179;-80
2021/05/23 02:27:18;;;;;;;0.70;0.50;;;10.60;99.90;;;;;;5056649;28;20432;-80
2021/05/23 02:30:23;;;;;;;0.70;0.50;;;10.70;99.90;;;;;;5075685;28;20461;-80
2021/05/23 02:32:53;;;;;;;0.70;0.50;;;10.70;99.90;;;;;;5063139;28;21030;-80
2021/05/23 02:35:25;;;;;;;0.70;0.50;;;10.60;99.90;;;;;;5072269;28;20783;-80
2021/05/23 02:37:54;;;;;;;0.70;0.50;;;10.60;99.90;;;;;;5083373;28;20412;-79
2021/05/23 02:40:22;;;;;;;0.70;0.50;;;10.70;99.90;;;;;;5062388;28;20801;-79
2021/05/23 02:42:48;;;;;;;0.70;0.50;;;10.60;99.90;;;;;;5061473;28;20419;-80
2021/05/23 02:45:18;;;;;;;0.70;0.50;;;10.60;99.90;;;;;;5054232;28;20413;-80
2021/05/23 02:47:45;;;;;;;0.70;0.50;;;10.50;99.90;;;;;;5058754;28;20458;-81
2021/05/23 02:50:18;;;;;;;0.70;0.50;;;10.50;99.90;;;;;;5058986;28;20417;-80
2021/05/23 02:52:44;;;;;;;0.70;0.50;;;10.50;99.90;;;;;;5048059;28;20431;-81
2021/05/23 02:55:11;;;;;;;0.70;0.50;;;10.40;99.90;;;;;;5057728;28;20416;-81
2021/05/23 02:57:39;;;;;;;0.70;0.50;;;10.40;99.90;;;;;;5056199;28;20457;-80
2021/05/23 03:00:07;;;;;;;0.70;0.50;;;10.30;99.90;;;;;;5054660;28;20458;-80
2021/05/23 03:02:33;;;;;;;0.70;0.50;;;10.40;99.90;;;;;;5052265;28;20420;-80
2021/05/23 03:05:03;;;;;;;0.70;0.50;;;10.40;99.90;;;;;;5062485;28;20498;-79
2021/05/23 03:07:29;;;;;;;0.70;0.50;;;10.30;99.90;;;;;;5069667;28;20520;-80
2021/05/23 03:10:17;;;;;;;0.70;0.50;;;10.40;99.90;;;;;;5072271;28;20424;-79
2021/05/23 03:12:44;;;;;;;0.70;0.50;;;10.30;99.90;;;;;;5062056;28;20194;-80
2021/05/23 03:15:12;;;;;;;0.70;0.50;;;10.30;99.90;;;;;;5073628;28;20428;-80
2021/05/23 03:17:39;;;;;;;1.27;1.17;;;10.20;99.90;;;;;;5082981;28;20522;-80
2021/05/23 03:20:07;;;;;;;0.70;0.50;;;10.30;99.90;;;;;;5064785;28;20453;-79
2021/05/23 03:22:33;;;;;;;0.70;0.50;;;10.30;99.90;;;;;;5075802;28;20410;-79
2021/05/23 03:24:58;;;;;;;0.70;0.50;;;10.30;99.90;;;;;;5070700;28;20408;-79
2021/05/23 03:27:24;;;;;;;0.70;0.50;;;10.40;99.90;;;;;;5063814;28;20946;-81
2021/05/23 03:29:49;;;;;;;0.70;0.50;;;10.30;99.90;;;;;;5067869;28;20268;-79
2021/05/23 03:32:15;;;;;;;0.70;0.50;;;10.30;99.90;;;;;;5067608;28;20201;-79
2021/05/23 03:34:40;;;;;;;0.70;0.50;;;10.20;99.90;;;;;;5063733;28;20186;-79
2021/05/23 03:37:06;;;;;;;0.70;0.50;;;10.20;99.90;;;;;;5078745;28;20224;-77
2021/05/23 03:39:32;;;;;;;0.70;0.50;;;10.10;99.90;;;;;;5078917;28;20202;-76
2021/05/23 03:41:57;;;;;;;0.70;0.50;;;10.10;99.90;;;;;;5083713;28;20189;-78
2021/05/23 03:44:23;;;;;;;0.70;0.50;;;10.10;99.90;;;;;;5080140;28;20179;-77
2021/05/23 03:46:48;;;;;;;0.70;0.50;;;10.10;99.90;;;;;;5077287;28;20231;-77
2021/05/23 03:49:14;;;;;;;0.70;0.50;;;10.20;99.90;;;;;;5043535;28;20179;-76
2021/05/23 03:51:39;;;;;;;0.70;0.50;;;10.20;99.90;;;;;;5060603;28;20185;-78
2021/05/23 03:54:07;;;;;;;0.70;0.50;;;10.10;99.90;;;;;;5055487;28;20185;-77
2021/05/23 03:56:32;;;;;;;0.70;0.50;;;10.20;99.90;;;;;;5069574;28;20194;-77
2021/05/23 03:58:58;;;;;;;0.70;0.50;;;10.20;99.90;;;;;;5062456;28;20508;-77
2021/05/23 04:01:24;;;;;;;0.70;0.50;;;10.10;99.90;;;;;;5070415;28;20690;-77
2021/05/23 04:03:49;;;;;;;0.70;0.50;;;10.20;99.90;;;;;;5077014;28;20178;-77
2021/05/23 04:06:15;;;;;;;0.70;0.50;;;10.20;99.90;;;;;;5057907;28;20252;-77
2021/05/23 04:08:41;;;;;;;0.70;0.50;;;10.20;99.90;;;;;;5065356;28;20628;-77
2021/05/23 04:11:13;;;;;;;0.70;0.50;;;10.30;99.90;;;;;;5070088;28;20181;-77
2021/05/23 04:13:40;;;;;;;0.70;0.50;;;10.20;99.90;;;;;;5050593;28;20214;-77
2021/05/23 04:16:06;;;;;;;0.70;0.50;;;10.30;99.90;;;;;;5073529;28;20456;-77
2021/05/23 04:18:32;;;;;;;0.70;0.50;;;10.30;99.90;;;;;;5077086;28;20954;-77
2021/05/23 04:20:58;;;;;;;0.70;0.50;;;10.30;99.90;;;;;;5077549;28;20852;-77
2021/05/23 04:23:24;;;;;;;0.70;0.50;;;10.20;99.90;;;;;;5078234;28;20205;-77
2021/05/23 04:25:51;;;;;;;0.70;0.50;;;10.20;99.90;;;;;;5075856;28;20232;-78
2021/05/23 04:28:16;;;;;;;0.70;0.50;;;10.20;99.90;;;;;;5068977;28;20419;-77
2021/05/23 04:30:42;;;;;;;0.70;0.50;;;10.10;99.90;;;;;;5065768;28;20463;-77
2021/05/23 04:33:07;;;;;;;0.70;0.50;;;10.10;99.90;;;;;;5056598;28;20630;-77
2021/05/23 04:35:33;;;;;;;0.70;0.50;;;10.00;99.90;;;;;;5073421;28;20177;-77
2021/05/23 04:38:00;;;;;;;0.70;0.50;;;9.90;99.90;;;;;;5073928;28;20178;-76
2021/05/23 04:40:28;;;;;;;0.70;0.50;;;10.00;99.90;;;;;;5072069;28;20289;-76
2021/05/23 04:42:53;;;;;;;0.70;0.50;;;9.90;99.90;;;;;;5056881;28;20443;-76
2021/05/23 04:45:19;;;;;;;0.70;0.50;;;9.90;99.90;;;;;;5072622;28;20425;-76
2021/05/23 04:47:44;;;;;;;0.70;0.50;;;9.90;99.90;;;;;;5074289;28;20198;-77
2021/05/23 04:50:11;;;;;;;0.70;0.50;;;9.80;99.90;;;;;;5072544;28;20546;-76
2021/05/23 04:52:37;;;;;;;0.70;0.50;;;9.90;99.90;;;;;;5070779;28;20182;-76
2021/05/23 04:55:05;;;;;;;0.70;0.50;;;9.90;99.90;;;;;;5069549;28;20447;-76
2021/05/23 04:57:30;;;;;;;0.70;0.50;;;9.90;99.90;;;;;;5073603;28;20466;-77
2021/05/23 04:59:56;;;;;;;0.70;0.50;;;9.90;99.90;;;;;;5047075;28;20827;-76
2021/05/23 05:02:22;;;;;;;0.70;0.50;;;9.90;99.90;;;;;;5053551;28;20174;-76
2021/05/23 05:04:47;;;;;;;0.70;0.50;;;9.80;99.90;;;;;;5068546;28;20178;-77
2021/05/23 05:07:13;;;;;;;0.70;0.50;;;9.90;99.90;;;;;;5075009;28;20214;-78
2021/05/23 05:09:39;;;;;;;0.70;0.50;;;9.80;99.90;;;;;;5051301;28;20209;-77
2021/05/23 05:12:05;;;;;;;0.70;0.50;;;9.70;99.90;;;;;;5073728;28;20639;-76
2021/05/23 05:14:30;;;;;;;0.70;0.50;;;9.80;99.90;;;;;;5079381;28;20177;-77
2021/05/23 05:16:56;;;;;;;0.70;0.50;;;9.80;99.90;;;;;;5063791;28;20479;-75
2021/05/23 05:19:21;;;;;;;0.70;0.50;;;9.80;99.90;;;;;;5079539;28;20319;-76
2021/05/23 05:21:47;;;;;;;0.70;0.50;;;9.90;99.90;;;;;;5072521;28;20265;-77
2021/05/23 05:24:13;;;;;;;0.70;0.50;;;9.70;99.90;;;;;;5055580;28;20163;-76
2021/05/23 05:26:40;;;;;;;0.70;0.50;;;9.70;99.90;;;;;;5072750;28;20242;-77
2021/05/23 05:29:06;;;;;;;0.70;0.50;;;9.80;99.90;;;;;;5065420;28;20170;-77
2021/05/23 05:31:32;;;;;;;0.70;0.50;;;9.80;99.90;;;;;;5072489;28;20444;-78
2021/05/23 05:33:58;;;;;;;0.70;0.50;;;9.80;99.90;;;;;;5081360;28;20408;-77
2021/05/23 05:36:24;;;;;;;0.70;0.50;;;9.70;99.90;;;;;;5072602;28;20470;-77
2021/05/23 05:38:49;;;;;;;0.70;0.50;;;9.80;99.90;;;;;;5077786;28;20170;-78
2021/05/23 05:41:20;;;;;;;0.70;0.50;;;9.80;99.90;;;;;;5060620;28;20227;-77
2021/05/23 05:43:46;;;;;;;0.70;0.50;;;9.70;99.90;;;;;;5057477;28;20178;-77
2021/05/23 05:46:11;;;;;;;0.70;0.50;;;9.90;99.90;;;;;;5070955;28;20823;-76
2021/05/23 05:48:37;;;;;;;0.70;0.50;;;9.80;99.90;;;;;;5066370;28;20519;-77
2021/05/23 05:51:03;;;;;;;0.70;0.50;;;9.90;99.90;;;;;;5070230;28;20181;-77
2021/05/23 05:53:28;;;;;;;0.70;0.50;;;9.90;99.90;;;;;;5071039;28;20182;-76
2021/05/23 05:55:54;;;;;;;0.70;0.50;;;10.00;99.90;;;;;;5052835;28;20697;-76
2021/05/23 05:58:19;;;;;;;0.70;0.50;;;10.00;99.90;;;;;;5050413;28;20635;-77
2021/05/23 06:00:45;;;;;;;0.70;0.50;;;10.00;99.90;;;;;;5071116;28;20205;-78
2021/05/23 06:03:11;;;;;;;0.70;0.50;;;10.00;99.90;;;;;;5071210;28;20177;-77
2021/05/23 06:05:36;;;;;;;0.70;0.50;;;10.10;99.90;;;;;;5069338;28;20190;-76
2021/05/23 06:08:02;;;;;;;0.70;0.50;;;10.10;99.90;;;;;;5066975;28;20927;-76
2021/05/23 06:10:27;;;;;;;0.70;0.50;;;10.10;99.90;;;;;;5055273;28;20178;-76
2021/05/23 06:12:53;;;;;;;0.70;0.50;;;10.20;99.90;;;;;;5056215;28;20182;-77
2021/05/23 06:15:19;;;;;;;0.70;0.50;;;10.10;99.90;;;;;;5072920;28;20658;-76
2021/05/23 06:17:45;;;;;;;0.70;0.50;;;10.20;99.90;;;;;;5063456;28;20663;-76
2021/05/23 06:20:11;;;;;;;0.70;0.50;;;10.40;99.90;;;;;;5070741;28;20551;-78
2021/05/23 06:22:36;;;;;;;0.70;0.50;;;10.40;99.90;;;;;;5063422;28;20174;-78
2021/05/23 06:25:03;;;;;;;0.70;0.50;;;10.40;99.90;;;;;;5059017;28;20461;-77
2021/05/23 06:27:29;;;;;;;0.70;0.50;;;10.40;99.90;;;;;;5069746;28;20244;-76
2021/05/23 06:29:55;;;;;;;0.70;0.50;;;10.20;99.90;;;;;;5074032;28;20462;-77
2021/05/23 06:32:20;;;;;;;0.70;0.50;;;10.30;99.90;;;;;;5072556;28;20205;-77
2021/05/23 06:34:46;;;;;;;0.70;0.50;;;10.30;99.90;;;;;;5073413;28;20182;-76
2021/05/23 06:37:11;;;;;;;0.70;0.50;;;10.20;99.90;;;;;;5054188;28;20198;-77
2021/05/23 06:39:38;;;;;;;0.70;0.50;;;10.40;99.90;;;;;;5070912;28;20191;-77
2021/05/23 06:42:04;;;;;;;0.70;0.50;;;10.20;99.90;;;;;;5044529;28;20185;-77
2021/05/23 06:44:30;;;;;;;0.70;0.50;;;10.30;99.90;;;;;;5081716;28;20424;-76
2021/05/23 06:46:55;;;;;;;0.70;0.50;;;10.70;99.90;;;;;;5059946;28;20479;-77
2021/05/23 06:49:21;;;;;;;0.70;0.50;;;11.20;99.90;;;;;;5073500;28;20194;-78
2021/05/23 06:51:46;;;;;;;0.70;0.50;;;11.70;99.90;;;;;;5077038;28;20185;-77
2021/05/23 06:54:12;;;;;;;0.70;0.50;;;11.90;99.90;;;;;;5075612;28;20173;-77
2021/05/23 06:56:38;;;;;;;0.70;0.50;;;12.30;99.90;;;;;;5088483;28;20201;-78
2021/05/23 06:59:04;;;;;;;0.70;0.50;;;12.50;99.90;;;;;;5061226;28;20190;-77
2021/05/23 07:01:31;;;;;;;0.70;0.50;;;12.80;99.90;;;;;;5074870;28;20249;-79
2021/05/23 07:03:57;;;;;;;0.70;0.50;;;13.20;99.90;;;;;;5065852;28;20553;-77
2021/05/23 07:06:22;;;;;;;0.70;0.50;;;13.40;99.90;;;;;;5066017;28;20440;-77
2021/05/23 07:08:48;;;;;;;0.70;0.50;;;13.40;99.90;;;;;;5074999;28;20254;-78
2021/05/23 07:11:13;;;;;;;0.70;0.50;;;13.50;99.90;;;;;;5079260;28;20202;-79
2021/05/23 07:13:39;;;;;;;0.70;0.50;;;14.00;99.90;;;;;;5083031;28;20189;-78
2021/05/23 07:16:05;;;;;;;0.70;0.50;;;14.50;99.90;;;;;;5063819;28;20597;-78
2021/05/23 07:18:30;;;;;;;0.70;0.50;;;14.70;99.90;;;;;;5077377;28;20174;-78
2021/05/23 07:20:59;;;;;;;0.70;0.50;;;14.50;99.90;;;;;;5079113;28;20486;-78
2021/05/23 07:23:25;;;;;;;0.70;0.50;;;14.70;99.90;;;;;;5060465;28;20619;-78
2021/05/23 07:25:51;;;;;;;0.70;0.50;;;14.80;99.90;;;;;;5075484;28;20455;-79
2021/05/23 07:28:16;;;;;;;0.70;0.50;;;15.20;99.90;;;;;;5069451;28;20412;-80
2021/05/23 07:30:42;;;;;;;0.70;0.50;;;15.40;99.90;;;;;;5059532;28;20202;-78
2021/05/23 07:33:08;;;;;;;0.70;0.50;;;15.40;99.90;;;;;;5078732;28;20201;-78
2021/05/23 07:35:33;;;;;;;0.70;0.50;;;15.20;99.90;;;;;;5079845;28;20671;-79
2021/05/23 07:37:59;;;;;;;0.70;0.50;;;15.40;99.90;;;;;;5081430;28;20186;-78
2021/05/23 07:40:24;;;;;;;0.70;0.50;;;15.30;99.90;;;;;;5062549;28;20319;-78
2021/05/23 07:42:50;;;;;;;0.70;0.50;;;15.20;99.90;;;;;;5085396;28;20166;-79
2021/05/23 07:45:16;;;;;;;0.70;0.50;;;15.30;99.90;;;;;;5062799;28;20213;-79
2021/05/23 07:47:41;;;;;;;0.70;0.50;;;15.50;99.90;;;;;;5081800;28;20213;-78
2021/05/23 07:50:12;;;;;;;0.70;0.50;;;15.60;99.90;;;;;;5064574;28;20785;-79
2021/05/23 07:52:38;;;;;;;0.70;0.50;;;15.60;99.90;;;;;;5080706;28;20178;-78
2021/05/23 07:55:05;;;;;;;0.70;0.50;;;15.80;99.90;;;;;;5069299;28;20424;-79
2021/05/23 07:57:30;;;;;;;0.70;0.50;;;16.00;99.90;;;;;;5065355;28;20290;-79
2021/05/23 07:59:56;;;;;;;0.70;0.50;;;16.40;99.90;;;;;;5076133;28;21028;-78
2021/05/23 08:02:22;;;;;;;0.70;0.50;;;16.10;99.90;;;;;;5082505;28;20556;-79
2021/05/23 08:04:47;;;;;;;0.70;0.50;;;15.90;99.90;;;;;;5063021;28;20182;-79
2021/05/23 08:07:13;;;;;;;0.70;0.50;;;16.10;99.90;;;;;;5057951;28;20669;-78
2021/05/23 08:09:38;;;;;;;0.70;0.60;;;16.40;99.90;;;;;;5075209;28;20239;-79
2021/05/23 08:12:04;;;;;;;0.70;0.50;;;16.90;99.90;;;;;;5081092;28;20170;-79
2021/05/23 08:14:29;;;;;;;0.70;0.50;;;17.00;99.90;;;;;;5054584;28;20651;-78
2021/05/23 08:16:55;;;;;;;0.70;0.50;;;17.00;99.90;;;;;;5060253;28;20981;-79
2021/05/23 08:19:21;;;;;;;0.70;0.50;;;17.40;99.90;;;;;;5067277;28;20221;-78
2021/05/23 08:21:47;;;;;;;0.70;0.50;;;17.00;99.90;;;;;;5077267;28;20242;-78
2021/05/23 08:24:13;;;;;;;0.70;0.60;;;17.40;99.90;;;;;;5088096;28;20221;-79
2021/05/23 08:26:39;;;;;;;0.70;0.50;;;17.10;99.90;;;;;;5078376;28;20453;-79
2021/05/23 08:29:05;;;;;;;0.70;0.50;;;17.00;99.90;;;;;;5058281;28;21168;-78
2021/05/23 08:31:31;;;;;;;0.70;0.50;;;16.80;99.90;;;;;;5075677;28;20202;-79
2021/05/23 08:33:57;;;;;;;0.70;0.50;;;16.50;99.90;;;;;;5067578;28;20421;-78
2021/05/23 08:36:23;;;;;;;0.70;0.50;;;16.50;99.90;;;;;;5056011;28;20486;-79
2021/05/23 08:38:49;;;;;;;0.70;0.50;;;16.40;99.90;;;;;;5065303;28;20186;-78
2021/05/23 08:41:18;;;;;;;0.70;0.50;;;15.90;99.90;;;;;;5073449;28;20336;-78
2021/05/23 08:43:45;;;;;;;0.70;0.50;;;15.70;99.90;;;;;;5073379;28;20432;-78
2021/05/23 08:46:11;;;;;;;0.70;0.50;;;15.90;99.90;;;;;;5054944;28;20518;-78
2021/05/23 08:48:39;;;;;;;0.70;0.50;;;15.60;99.90;;;;;;5056877;28;21147;-79
2021/05/23 08:51:05;;;;;;;0.70;0.50;;;16.10;99.90;;;;;;5072271;28;20432;-78
2021/05/23 08:53:30;;;;;;;0.70;0.50;;;16.30;99.90;;;;;;5039242;28;20439;-78
2021/05/23 08:55:56;;;;;;;0.70;0.50;;;16.20;99.90;;;;;;5055412;28;20285;-79
2021/05/23 08:58:24;;;;;;;0.70;0.50;;;16.50;99.90;;;;;;5055742;28;20179;-78
2021/05/23 09:00:49;;;;;;;0.70;0.50;;;16.40;99.90;;;;;;5072363;28;20198;-78
2021/05/23 09:03:16;;;;;;;0.70;0.50;;;16.90;99.90;;;;;;5075097;28;20432;-78
2021/05/23 09:05:48;;;;;;;0.70;0.50;;;16.90;98.80;;;;;;5063514;28;20175;-78
2021/05/23 09:08:21;;;;;;;0.70;0.50;;;17.40;99.90;;;;;;5054997;28;20409;-78
2021/05/23 09:10:49;;;;;;;0.70;0.50;;;17.10;99.60;;;;;;5069782;28;20928;-78
2021/05/23 09:13:30;;;;;;;0.70;0.50;;;17.30;99.90;;;;;;5057021;28;20956;-76
2021/05/23 09:16:10;;;;;;;0.70;0.50;;;17.50;99.90;;;;;;5073625;28;20470;-76
2021/05/23 09:18:48;;;;;;;0.70;0.50;;;17.20;97.70;;;;;;5063197;28;20417;-76
2021/05/23 09:21:21;;;;;;;0.70;0.50;;;17.20;99.60;;;;;;5053678;28;20520;-76
2021/05/23 09:23:56;;;;;;;0.70;0.50;;;17.40;99.90;;;;;;5073523;28;20416;-76
2021/05/23 09:26:27;;;;;;;0.70;0.50;;;16.90;98.50;;;;;;5053938;28;20428;-76
2021/05/23 09:28:54;;;;;;;0.70;0.50;;;16.50;96.20;;;;;;5059302;28;20474;-76
2021/05/23 09:31:24;;;;;;;0.70;0.50;;;16.40;97.80;;;;;;5035825;28;20417;-76
2021/05/23 09:33:52;;;;;;;0.70;0.50;;;16.70;99.90;;;;;;5038488;28;20418;-76
2021/05/23 09:36:19;;;;;;;0.70;0.50;;;17.30;99.90;;;;;;5073000;28;20515;-76
2021/05/23 09:38:59;;;;;;;0.70;0.50;;;17.30;97.70;;;;;;5067884;28;20453;-76
2021/05/23 09:41:27;;;;;;;0.70;0.50;;;17.60;99.90;;;;;;5054692;28;20452;-76
2021/05/23 09:44:19;;;;;;;0.80;0.50;;;18.10;99.90;;;;;;5067677;28;20432;-75
2021/05/23 09:47:04;;;;;;;0.70;0.50;;;17.60;93.00;;;;;;5073497;28;20455;-77
2021/05/23 09:49:41;;;;;;;0.70;0.50;;;17.60;94.10;;;;;;5072479;28;20420;-77
2021/05/23 09:52:10;;;;;;;0.70;0.50;;;17.10;91.00;;;;;;5074635;28;20570;-78
2021/05/23 09:54:48;;;;;;;0.70;0.50;;;16.60;95.80;;;;;;5051746;28;20409;-76
2021/05/23 09:57:19;;;;;;;0.70;0.50;;;16.40;96.90;;;;;;5059210;28;20807;-76
2021/05/23 09:59:46;;;;;;;0.70;0.50;;;16.60;99.90;;;;;;5053067;28;20452;-76
2021/05/23 10:02:13;;;;;;;0.70;0.50;;;16.50;97.30;;;;;;5072764;28;20780;-76
2021/05/23 10:04:40;;;;;;;0.90;0.73;;;16.40;99.90;;;;;;5072662;28;20414;-76
2021/05/23 10:07:13;;;;;;;0.70;0.50;;;16.80;99.90;;;;;;5059696;28;20440;-76
2021/05/23 10:09:40;;;;;;;0.70;0.50;;;17.30;99.90;;;;;;5058491;28;20937;-77
2021/05/23 10:12:09;;;;;;;0.73;0.50;;;17.50;98.40;;;;;;5072980;28;20416;-77
2021/05/23 10:14:35;;;;;;;0.70;0.50;;;18.20;98.90;;;;;;5055486;28;20428;-77
2021/05/23 10:17:02;;;;;;;0.70;0.50;;;19.20;96.80;;;;;;5067585;28;20441;-76
2021/05/23 10:19:31;;;;;;;0.70;0.50;;;19.10;82.50;;;;;;5063736;28;20460;-76
2021/05/23 10:22:04;;;;;;;0.70;0.50;;;18.20;79.00;;;;;;5061302;28;20942;-77
2021/05/23 10:24:34;;;;;;;0.80;0.70;;;18.30;92.60;;;;;;5053120;28;20413;-76
2021/05/23 10:27:08;;;;;;;0.70;0.50;;;18.00;90.40;;;;;;5068532;28;20441;-76
2021/05/23 10:29:37;;;;;;;0.70;0.50;;;17.70;91.20;;;;;;5052475;28;20431;-76
2021/05/23 10:32:12;;;;;;;0.70;0.50;;;17.40;91.80;;;;;;5066328;28;20814;-77
2021/05/23 10:34:42;;;;;;;0.70;0.50;;;17.00;93.30;;;;;;5068022;28;20408;-76
2021/05/23 10:37:08;;;;;;;0.70;0.50;;;17.10;98.40;;;;;;5072228;28;20586;-76
2021/05/23 10:39:42;;;;;;;0.70;0.50;;;16.60;97.10;;;;;;5072160;28;20543;-76
2021/05/23 10:42:12;;;;;;;0.70;0.50;;;16.70;97.80;;;;;;5073187;28;20430;-76
2021/05/23 10:44:43;;;;;;;0.70;0.50;;;16.80;99.90;;;;;;5073393;28;20558;-78
2021/05/23 10:47:11;;;;;;;0.70;0.50;;;16.70;99.90;;;;;;5067653;28;20488;-76
2021/05/23 10:49:47;;;;;;;0.77;0.50;;;16.90;99.90;;;;;;5072203;28;20428;-77
2021/05/23 10:52:16;;;;;;;0.70;0.60;;;17.00;99.50;;;;;;5073052;28;20503;-77
2021/05/23 10:54:53;;;;;;;0.70;0.50;;;17.00;98.20;;;;;;5055530;28;20425;-76
2021/05/23 10:57:18;;;;;;;0.70;0.50;;;17.00;99.50;;;;;;5072928;28;20432;-76
2021/05/23 10:59:44;;;;;;;0.70;0.50;;;16.90;99.90;;;;;;5071740;28;20910;-76
2021/05/23 11:02:09;;;;;;;0.70;0.50;;;16.50;99.90;;;;;;5069047;28;20182;-76
2021/05/23 11:04:39;;;;;;;0.70;0.50;;;17.30;99.90;;;;;;5054794;28;20597;-76
2021/05/23 11:07:12;;;;;;;0.70;0.50;;;17.70;99.90;;;;;;5072591;28;20198;-77
2021/05/23 11:09:39;;;;;;;0.70;0.50;;;18.60;99.90;;;;;;5071782;28;20416;-77
2021/05/23 11:12:13;;;;;;;0.70;0.50;;;19.10;92.10;;;;;;5056425;28;20416;-77
2021/05/23 11:14:38;;;;;;;0.70;0.50;;;19.30;86.10;;;;;;5072499;28;20424;-77
2021/05/23 11:17:08;;;;;;;0.77;0.50;;;20.00;92.80;;;;;;5055626;28;20456;-77
2021/05/23 11:19:34;;;;;;;0.70;0.50;;;20.20;84.80;;;;;;5068060;28;20663;-76
2021/05/23 11:22:00;;;;;;;0.70;0.50;;;19.80;77.00;;;;;;5064163;28;20478;-76
2021/05/23 11:24:26;;;;;;;0.70;0.50;;;19.90;86.20;;;;;;5055882;28;20175;-77
2021/05/23 11:26:52;;;;;;;0.70;0.50;;;20.10;84.50;;;;;;5062966;28;20187;-77
2021/05/23 11:29:19;;;;;;;0.70;0.50;;;20.20;74.60;;;;;;5052182;28;21035;-77
2021/05/23 11:31:48;;;;;;;0.80;0.50;;;20.00;69.10;;;;;;5075286;28;20253;-77
2021/05/23 11:34:17;;;;;;;0.70;0.50;;;19.90;75.50;;;;;;5075898;28;20425;-77
2021/05/23 11:36:43;;;;;;;0.70;0.50;;;19.80;74.50;;;;;;5076489;28;20494;-77
2021/05/23 11:39:14;;;;;;;0.70;0.50;;;19.50;72.40;;;;;;5064495;28;20428;-77
2021/05/23 11:41:45;;;;;;;0.70;0.50;;;19.40;77.00;;;;;;5075957;28;20170;-76
2021/05/23 11:44:15;;;;;;;0.70;0.50;;;19.00;73.50;;;;;;5075953;28;20416;-76
2021/05/23 11:46:44;;;;;;;0.70;0.50;;;19.50;76.40;;;;;;5057373;28;20472;-76
2021/05/23 11:49:20;;;;;;;0.70;0.50;;;19.40;76.80;;;;;;5058327;28;20420;-77
2021/05/23 11:51:46;;;;;;;0.70;0.50;;;19.40;68.90;;;;;;5059344;28;20925;-77
2021/05/23 11:54:12;;;;;;;0.70;0.50;;;19.70;71.20;;;;;;5074010;28;20455;-77
2021/05/23 11:56:40;;;;;;;0.70;0.50;;;20.00;68.80;;;;;;5056960;28;20540;-76
2021/05/23 11:59:08;;;;;;;0.80;0.50;;;20.70;77.00;;;;;;5066907;28;20172;-76
2021/05/23 12:01:38;;;;;;;0.80;0.50;;;20.40;61.60;;;;;;5060857;28;20432;-75
2021/05/23 12:04:07;;;;;;;0.70;0.50;;;19.50;59.60;;;;;;5073787;28;20421;-76
2021/05/23 12:06:48;;;;;;;0.70;0.50;;;20.00;69.40;;;;;;5063612;28;20448;-76
2021/05/23 12:09:24;;;;;;;0.70;0.50;;;20.60;63.00;;;;;;5071776;28;20428;-76
2021/05/23 12:11:52;;;;;;;0.70;0.50;;;19.80;56.20;;;;;;5061352;28;20964;-76
2021/05/23 12:14:23;;;;;;;0.70;0.50;;;19.90;59.30;;;;;;5086466;28;20424;-76
2021/05/23 12:17:10;;;;;;;0.73;0.50;;;20.50;65.20;;;;;;5095251;28;20450;-76
2021/05/23 12:19:49;;;;;;;0.70;0.50;;;20.30;62.80;;;;;;5069884;28;20440;-76
2021/05/23 12:22:19;;;;;;;0.70;0.50;;;20.00;58.00;;;;;;5068065;28;20881;-77
2021/05/23 12:24:47;;;;;;;0.70;0.50;;;20.30;60.90;;;;;;5057475;28;20515;-77
2021/05/23 12:27:33;;;;;;;0.80;0.50;;;20.80;65.40;;;;;;5050075;28;20489;-77
2021/05/23 12:30:26;;;;;;;0.80;0.50;;;20.60;59.80;;;;;;5067046;28;21040;-76
2021/05/23 12:33:05;;;;;;;0.70;0.50;;;20.60;61.10;;;;;;5055873;28;20416;-77
2021/05/23 12:35:36;;;;;;;0.77;0.57;;;19.50;58.10;;;;;;5046784;28;20425;-77
2021/05/23 12:38:02;;;;;;;0.70;0.50;;;19.40;62.80;;;;;;5039454;28;20409;-77
2021/05/23 12:40:30;;;;;;;0.70;0.50;;;19.70;67.80;;;;;;5060201;28;20490;-77
2021/05/23 12:43:18;;;;;;;0.70;0.50;;;19.80;66.00;;;;;;5074411;28;20170;-76
2021/05/23 12:46:08;;;;;;;0.80;0.50;;;20.40;63.80;;;;;;5075276;28;20423;-77
2021/05/23 12:48:35;;;;;;;0.70;0.50;;;20.30;59.50;;;;;;5063417;28;20421;-76
2021/05/23 12:51:06;;;;;;;0.70;0.50;;;20.80;60.00;;;;;;5072260;28;20413;-78
2021/05/23 12:53:34;;;;;;;0.70;0.50;;;20.70;58.40;;;;;;5074607;28;20413;-79
2021/05/23 12:56:17;;;;;;;0.77;0.50;;;20.00;56.20;;;;;;5057230;28;20447;-77
2021/05/23 12:58:49;;;;;;;0.70;0.50;;;19.80;57.60;;;;;;5075537;28;20959;-78
2021/05/23 13:01:27;;;;;;;0.70;0.50;;;19.90;58.60;;;;;;5058780;28;20447;-77
2021/05/23 13:04:00;;;;;;;0.70;0.50;;;20.00;57.20;;;;;;5062915;28;20417;-82
2021/05/23 13:06:39;;;;;;;0.70;0.60;;;19.70;60.30;;;;;;5055028;28;20452;-82